More Magic — 2DWJ4 — position and weather

sailwx.info

Track history (hours):
 
Tides and Currents Weather Stations Pressure Air Temp Water Temp Dewpoint Dewpoint Depression Visibility Wind Speed Wind Dir Waves Ship Positions

More Magic

Last reported at 2015-May-26 20:12 UTC. Time now 2015-May-28 12:13 UTC.
Position N 18°24' W 064°37'.

Length 20 m.

Type: Sailing vessel. MMSI: 235082545.

Date/timePositionNaut miles runAvg speedWind from/ knotsBaromVisibWave heightAir tempDewpointWater temp
2015-May-26 20:12N 18°24' W 064°37'5 7.7
2015-May-26 19:33N 18°23' W 064°43'5 5.5
2015-May-26 18:33N 18°21' W 064°48'2 0.0
2015-May-24 15:30N 18°20' W 064°50'1 0.1
2015-May-23 17:21N 18°19' W 064°49'1 1.1
2015-May-23 16:28N 18°20' W 064°48'5 5.0
2015-May-23 15:34N 18°24' W 064°46'3 2.4
2015-May-23 14:30N 18°26' W 064°45'2 1.9
2015-May-23 13:30N 18°26' W 064°43'3 1.1
2015-May-23 10:23N 18°26' W 064°40'0 0.0
2015-May-23 09:23N 18°26' W 064°40'0 0.0
2015-May-23 08:32N 18°26' W 064°40'0 0.0
2015-May-23 07:26N 18°26' W 064°40'0 0.0
2015-May-23 06:32N 18°26' W 064°40'0 0.0
2015-May-23 04:32N 18°26' W 064°40'0 0.0
2015-May-23 03:14N 18°26' W 064°40'0 0.0
2015-May-23 02:32N 18°26' W 064°40'0 0.0
2015-May-23 01:17N 18°26' W 064°40'0 0.0
2015-May-23 00:32N 18°26' W 064°40'0 0.0
2015-May-22 23:08N 18°26' W 064°40'0 0.0
2015-May-22 22:13N 18°26' W 064°40'2 3.4
2015-May-22 21:32N 18°27' W 064°42'5 2.4
2015-May-22 19:26N 18°25' W 064°47'4 1.0
2015-May-22 15:26N 18°26' W 064°43'0 0.1
2015-May-22 14:31N 18°26' W 064°43'0 0.0
2015-May-22 13:22N 18°26' W 064°43'0 0.0
2015-May-22 12:28N 18°26' W 064°43'0 0.0
2015-May-22 11:28N 18°26' W 064°43'0 0.0
2015-May-22 10:28N 18°26' W 064°43'0 0.0
2015-May-22 09:25N 18°26' W 064°43'0 0.0
2015-May-22 08:25N 18°26' W 064°43'0 0.0
2015-May-22 07:22N 18°26' W 064°43'0 0.0
2015-May-22 06:28N 18°26' W 064°43'0 0.0
2015-May-22 05:10N 18°26' W 064°43'0 0.0
2015-May-22 04:31N 18°26' W 064°43'0 0.0
2015-May-22 03:13N 18°26' W 064°43'0 0.0
2015-May-22 02:22N 18°26' W 064°43'0 0.0
2015-May-22 01:19N 18°26' W 064°43'0 0.0
2015-May-22 00:25N 18°26' W 064°43'0 0.0
2015-May-21 23:16N 18°26' W 064°43'0 0.1
2015-May-21 22:33N 18°26' W 064°43'  
2015-May-17 16:13N 18°23' W 064°36'5 0.2
2015-May-16 20:33N 18°22' W 064°41'  
Track history (hours):
 
Tides and Currents Weather Stations Pressure Air Temp Water Temp Dewpoint Dewpoint Depression Visibility Wind Speed Wind Dir Waves Ship Positions

More Magic

Last reported at 2015-May-26 20:12 UTC. Time now 2015-May-28 12:13 UTC.
Position N 18°24' W 064°37'.

Length 20 m.

Type: Sailing vessel. MMSI: 235082545.

Date/timePositionNaut miles runAvg speedWind from/ knotsBaromVisibWave heightAir tempDewpointWater temp
2015-May-26 20:12N 18°24' W 064°37'5 7.7
2015-May-26 19:33N 18°23' W 064°43'5 5.5
2015-May-26 18:33N 18°21' W 064°48'2 0.0
2015-May-24 15:30N 18°20' W 064°50'1 0.1
2015-May-23 17:21N 18°19' W 064°49'1 1.1
2015-May-23 16:28N 18°20' W 064°48'5 5.0
2015-May-23 15:34N 18°24' W 064°46'3 2.4
2015-May-23 14:30N 18°26' W 064°45'2 1.9
2015-May-23 13:30N 18°26' W 064°43'3 1.1
2015-May-23 10:23N 18°26' W 064°40'0 0.0
2015-May-23 09:23N 18°26' W 064°40'0 0.0
2015-May-23 08:32N 18°26' W 064°40'0 0.0
2015-May-23 07:26N 18°26' W 064°40'0 0.0
2015-May-23 06:32N 18°26' W 064°40'0 0.0
2015-May-23 04:32N 18°26' W 064°40'0 0.0
2015-May-23 03:14N 18°26' W 064°40'0 0.0
2015-May-23 02:32N 18°26' W 064°40'0 0.0
2015-May-23 01:17N 18°26' W 064°40'0 0.0
2015-May-23 00:32N 18°26' W 064°40'0 0.0
2015-May-22 23:08N 18°26' W 064°40'0 0.0
2015-May-22 22:13N 18°26' W 064°40'2 3.4
2015-May-22 21:32N 18°27' W 064°42'5 2.4
2015-May-22 19:26N 18°25' W 064°47'4 1.0
2015-May-22 15:26N 18°26' W 064°43'0 0.1
2015-May-22 14:31N 18°26' W 064°43'0 0.0
2015-May-22 13:22N 18°26' W 064°43'0 0.0
2015-May-22 12:28N 18°26' W 064°43'0 0.0
2015-May-22 11:28N 18°26' W 064°43'0 0.0
2015-May-22 10:28N 18°26' W 064°43'0 0.0
2015-May-22 09:25N 18°26' W 064°43'0 0.0
2015-May-22 08:25N 18°26' W 064°43'0 0.0
2015-May-22 07:22N 18°26' W 064°43'0 0.0
2015-May-22 06:28N 18°26' W 064°43'0 0.0
2015-May-22 05:10N 18°26' W 064°43'0 0.0
2015-May-22 04:31N 18°26' W 064°43'0 0.0
2015-May-22 03:13N 18°26' W 064°43'0 0.0
2015-May-22 02:22N 18°26' W 064°43'0 0.0
2015-May-22 01:19N 18°26' W 064°43'0 0.0
2015-May-22 00:25N 18°26' W 064°43'0 0.0
2015-May-21 23:16N 18°26' W 064°43'0 0.1
2015-May-21 22:33N 18°26' W 064°43'  
2015-May-17 16:13N 18°23' W 064°36'5 0.2
2015-May-16 20:33N 18°22' W 064°41'  

Dump ship's entire track history